sensor_id;sensor_type;location;lat;lon;timestamp;temperature;humidity
78467;SHT31;67759;51.972;5.650;2023-02-26T00:01:56;4.1;60.0
78467;SHT31;67759;51.972;5.650;2023-02-26T00:04:28;4.1;60.0
78467;SHT31;67759;51.972;5.650;2023-02-26T00:06:58;4.1;59.4
78467;SHT31;67759;51.972;5.650;2023-02-26T00:09:29;4.2;59.4
78467;SHT31;67759;51.972;5.650;2023-02-26T00:12:00;4.2;59.1
78467;SHT31;67759;51.972;5.650;2023-02-26T00:14:31;4.1;59.3
78467;SHT31;67759;51.972;5.650;2023-02-26T00:17:21;4.1;59.6
78467;SHT31;67759;51.972;5.650;2023-02-26T00:19:53;4.0;59.4
78467;SHT31;67759;51.972;5.650;2023-02-26T00:22:24;4.0;59.9
78467;SHT31;67759;51.972;5.650;2023-02-26T00:24:54;3.9;59.9
78467;SHT31;67759;51.972;5.650;2023-02-26T00:27:24;3.9;59.6
78467;SHT31;67759;51.972;5.650;2023-02-26T00:29:56;3.8;59.9
78467;SHT31;67759;51.972;5.650;2023-02-26T00:32:26;3.7;59.9
78467;SHT31;67759;51.972;5.650;2023-02-26T00:34:57;3.6;60.4
78467;SHT31;67759;51.972;5.650;2023-02-26T00:37:52;3.6;60.6
78467;SHT31;67759;51.972;5.650;2023-02-26T00:40:24;3.5;60.2
78467;SHT31;67759;51.972;5.650;2023-02-26T00:42:58;3.5;61.0
78467;SHT31;67759;51.972;5.650;2023-02-26T00:45:28;3.5;60.0
78467;SHT31;67759;51.972;5.650;2023-02-26T00:48:12;3.4;59.8
78467;SHT31;67759;51.972;5.650;2023-02-26T00:50:53;3.4;60.2
78467;SHT31;67759;51.972;5.650;2023-02-26T00:53:29;3.3;59.8
78467;SHT31;67759;51.972;5.650;2023-02-26T00:56:01;3.3;60.0
78467;SHT31;67759;51.972;5.650;2023-02-26T00:58:33;3.2;60.2
78467;SHT31;67759;51.972;5.650;2023-02-26T01:01:05;3.2;60.3
78467;SHT31;67759;51.972;5.650;2023-02-26T01:03:38;3.2;60.6
78467;SHT31;67759;51.972;5.650;2023-02-26T01:06:12;3.1;60.2
78467;SHT31;67759;51.972;5.650;2023-02-26T01:08:51;3.1;60.1
78467;SHT31;67759;51.972;5.650;2023-02-26T01:11:24;3.1;60.2
78467;SHT31;67759;51.972;5.650;2023-02-26T01:13:55;3.0;60.1
78467;SHT31;67759;51.972;5.650;2023-02-26T01:16:27;3.0;60.6
78467;SHT31;67759;51.972;5.650;2023-02-26T01:19:04;3.0;60.3
78467;SHT31;67759;51.972;5.650;2023-02-26T01:21:45;2.9;60.5
78467;SHT31;67759;51.972;5.650;2023-02-26T01:24:20;2.9;61.1
78467;SHT31;67759;51.972;5.650;2023-02-26T01:26:51;2.8;60.2
78467;SHT31;67759;51.972;5.650;2023-02-26T01:29:22;2.8;60.8
78467;SHT31;67759;51.972;5.650;2023-02-26T01:31:58;2.8;61.0
78467;SHT31;67759;51.972;5.650;2023-02-26T01:34:35;2.7;61.1
78467;SHT31;67759;51.972;5.650;2023-02-26T01:37:18;2.7;60.6
78467;SHT31;67759;51.972;5.650;2023-02-26T01:40:02;2.7;60.1
78467;SHT31;67759;51.972;5.650;2023-02-26T01:42:37;2.7;60.1
78467;SHT31;67759;51.972;5.650;2023-02-26T01:45:16;2.6;61.0
78467;SHT31;67759;51.972;5.650;2023-02-26T01:47:52;2.6;61.2
78467;SHT31;67759;51.972;5.650;2023-02-26T01:50:27;2.6;60.7
78467;SHT31;67759;51.972;5.650;2023-02-26T01:53:17;2.5;61.0
78467;SHT31;67759;51.972;5.650;2023-02-26T01:55:51;2.5;61.0
78467;SHT31;67759;51.972;5.650;2023-02-26T01:58:24;2.5;61.0
78467;SHT31;67759;51.972;5.650;2023-02-26T02:00:56;2.5;61.7
78467;SHT31;67759;51.972;5.650;2023-02-26T02:03:31;2.5;62.7
78467;SHT31;67759;51.972;5.650;2023-02-26T02:06:06;2.5;61.2
78467;SHT31;67759;51.972;5.650;2023-02-26T02:08:36;2.5;60.6
78467;SHT31;67759;51.972;5.650;2023-02-26T02:11:10;2.5;61.4
78467;SHT31;67759;51.972;5.650;2023-02-26T02:13:58;2.4;60.5
78467;SHT31;67759;51.972;5.650;2023-02-26T02:16:39;2.4;60.8
78467;SHT31;67759;51.972;5.650;2023-02-26T02:19:42;2.4;60.8
78467;SHT31;67759;51.972;5.650;2023-02-26T02:22:31;2.5;61.2
78467;SHT31;67759;51.972;5.650;2023-02-26T02:25:29;2.5;60.8
78467;SHT31;67759;51.972;5.650;2023-02-26T02:28:05;2.5;60.6
78467;SHT31;67759;51.972;5.650;2023-02-26T02:30:49;2.5;60.5
78467;SHT31;67759;51.972;5.650;2023-02-26T02:33:24;2.5;60.8
78467;SHT31;67759;51.972;5.650;2023-02-26T02:36:02;2.5;60.5
78467;SHT31;67759;51.972;5.650;2023-02-26T02:38:38;2.5;60.7
78467;SHT31;67759;51.972;5.650;2023-02-26T02:41:15;2.5;60.2
78467;SHT31;67759;51.972;5.650;2023-02-26T02:43:49;2.5;59.7
78467;SHT31;67759;51.972;5.650;2023-02-26T02:46:23;2.5;59.8
78467;SHT31;67759;51.972;5.650;2023-02-26T02:48:59;2.5;59.8
78467;SHT31;67759;51.972;5.650;2023-02-26T02:51:33;2.5;59.7
78467;SHT31;67759;51.972;5.650;2023-02-26T02:54:09;2.4;59.7
78467;SHT31;67759;51.972;5.650;2023-02-26T02:56:45;2.4;59.8
78467;SHT31;67759;51.972;5.650;2023-02-26T02:59:21;2.4;59.7
78467;SHT31;67759;51.972;5.650;2023-02-26T03:01:57;2.4;60.4
78467;SHT31;67759;51.972;5.650;2023-02-26T03:04:29;2.3;59.8
78467;SHT31;67759;51.972;5.650;2023-02-26T03:06:59;2.3;60.1
78467;SHT31;67759;51.972;5.650;2023-02-26T03:09:34;2.2;59.4
78467;SHT31;67759;51.972;5.650;2023-02-26T03:12:04;2.2;58.6
78467;SHT31;67759;51.972;5.650;2023-02-26T03:14:37;2.2;58.4
78467;SHT31;67759;51.972;5.650;2023-02-26T03:17:22;2.1;58.5
78467;SHT31;67759;51.972;5.650;2023-02-26T03:20:08;2.1;59.6
78467;SHT31;67759;51.972;5.650;2023-02-26T03:22:45;2.1;59.2
78467;SHT31;67759;51.972;5.650;2023-02-26T03:25:24;2.0;59.2
78467;SHT31;67759;51.972;5.650;2023-02-26T03:28:03;2.0;59.3
78467;SHT31;67759;51.972;5.650;2023-02-26T03:30:39;2.0;58.6
78467;SHT31;67759;51.972;5.650;2023-02-26T03:33:13;2.0;58.5
78467;SHT31;67759;51.972;5.650;2023-02-26T03:35:48;2.0;58.0
78467;SHT31;67759;51.972;5.650;2023-02-26T03:38:25;1.9;58.1
78467;SHT31;67759;51.972;5.650;2023-02-26T03:41:01;1.9;59.0
78467;SHT31;67759;51.972;5.650;2023-02-26T03:43:36;1.9;59.5
78467;SHT31;67759;51.972;5.650;2023-02-26T03:46:14;1.9;58.7
78467;SHT31;67759;51.972;5.650;2023-02-26T03:48:48;1.9;58.1
78467;SHT31;67759;51.972;5.650;2023-02-26T03:51:22;1.9;58.8
78467;SHT31;67759;51.972;5.650;2023-02-26T03:53:56;1.9;58.7
78467;SHT31;67759;51.972;5.650;2023-02-26T03:56:29;1.9;58.8
78467;SHT31;67759;51.972;5.650;2023-02-26T03:59:01;1.9;58.5
78467;SHT31;67759;51.972;5.650;2023-02-26T04:01:38;2.0;59.0
78467;SHT31;67759;51.972;5.650;2023-02-26T04:04:14;2.0;59.5
78467;SHT31;67759;51.972;5.650;2023-02-26T04:06:47;1.9;59.2
78467;SHT31;67759;51.972;5.650;2023-02-26T04:09:21;1.9;58.2
78467;SHT31;67759;51.972;5.650;2023-02-26T04:11:52;1.9;58.1
78467;SHT31;67759;51.972;5.650;2023-02-26T04:14:23;1.9;58.5
78467;SHT31;67759;51.972;5.650;2023-02-26T04:16:54;1.9;58.2
78467;SHT31;67759;51.972;5.650;2023-02-26T04:19:24;1.9;58.0
78467;SHT31;67759;51.972;5.650;2023-02-26T04:21:55;1.9;58.1
78467;SHT31;67759;51.972;5.650;2023-02-26T04:24:24;1.9;58.0
78467;SHT31;67759;51.972;5.650;2023-02-26T04:26:54;2.0;58.5
78467;SHT31;67759;51.972;5.650;2023-02-26T04:29:26;2.0;57.0
78467;SHT31;67759;51.972;5.650;2023-02-26T04:31:56;2.0;57.3
78467;SHT31;67759;51.972;5.650;2023-02-26T04:34:27;2.0;56.3
78467;SHT31;67759;51.972;5.650;2023-02-26T04:36:56;2.0;56.0
78467;SHT31;67759;51.972;5.650;2023-02-26T04:39:26;1.9;56.2
78467;SHT31;67759;51.972;5.650;2023-02-26T04:41:55;1.9;56.4
78467;SHT31;67759;51.972;5.650;2023-02-26T04:44:25;1.9;55.4
78467;SHT31;67759;51.972;5.650;2023-02-26T04:46:55;1.9;57.2
78467;SHT31;67759;51.972;5.650;2023-02-26T04:49:26;1.8;56.4
78467;SHT31;67759;51.972;5.650;2023-02-26T04:51:56;1.8;57.2
78467;SHT31;67759;51.972;5.650;2023-02-26T04:54:25;1.7;56.9
78467;SHT31;67759;51.972;5.650;2023-02-26T04:56:55;1.7;56.8
78467;SHT31;67759;51.972;5.650;2023-02-26T04:59:25;1.7;56.3
78467;SHT31;67759;51.972;5.650;2023-02-26T05:01:56;1.6;56.6
78467;SHT31;67759;51.972;5.650;2023-02-26T05:04:26;1.6;57.4
78467;SHT31;67759;51.972;5.650;2023-02-26T05:06:56;1.6;57.7
78467;SHT31;67759;51.972;5.650;2023-02-26T05:09:26;1.6;58.6
78467;SHT31;67759;51.972;5.650;2023-02-26T05:11:56;1.6;57.5
78467;SHT31;67759;51.972;5.650;2023-02-26T05:14:26;1.5;59.3
78467;SHT31;67759;51.972;5.650;2023-02-26T05:16:57;1.5;59.0
78467;SHT31;67759;51.972;5.650;2023-02-26T05:19:27;1.5;57.2
78467;SHT31;67759;51.972;5.650;2023-02-26T05:21:56;1.5;57.7
78467;SHT31;67759;51.972;5.650;2023-02-26T05:24:26;1.5;58.4
78467;SHT31;67759;51.972;5.650;2023-02-26T05:26:56;1.5;57.0
78467;SHT31;67759;51.972;5.650;2023-02-26T05:29:25;1.5;57.1
78467;SHT31;67759;51.972;5.650;2023-02-26T05:31:55;1.5;56.8
78467;SHT31;67759;51.972;5.650;2023-02-26T05:34:25;1.5;56.8
78467;SHT31;67759;51.972;5.650;2023-02-26T05:36:54;1.5;56.9
78467;SHT31;67759;51.972;5.650;2023-02-26T05:39:25;1.5;58.0
78467;SHT31;67759;51.972;5.650;2023-02-26T05:41:55;1.4;57.5
78467;SHT31;67759;51.972;5.650;2023-02-26T05:44:27;1.4;56.7
78467;SHT31;67759;51.972;5.650;2023-02-26T05:46:59;1.4;56.6
78467;SHT31;67759;51.972;5.650;2023-02-26T05:49:29;1.4;56.0
78467;SHT31;67759;51.972;5.650;2023-02-26T05:51:58;1.4;56.2
78467;SHT31;67759;51.972;5.650;2023-02-26T05:54:28;1.3;57.0
78467;SHT31;67759;51.972;5.650;2023-02-26T05:57:00;1.3;56.7
78467;SHT31;67759;51.972;5.650;2023-02-26T05:59:29;1.3;56.1
78467;SHT31;67759;51.972;5.650;2023-02-26T06:01:59;1.3;56.6
78467;SHT31;67759;51.972;5.650;2023-02-26T06:04:29;1.3;56.0
78467;SHT31;67759;51.972;5.650;2023-02-26T06:06:59;1.2;56.3
78467;SHT31;67759;51.972;5.650;2023-02-26T06:09:31;1.2;55.7
78467;SHT31;67759;51.972;5.650;2023-02-26T06:12:00;1.2;57.9
78467;SHT31;67759;51.972;5.650;2023-02-26T06:14:31;1.3;57.0
78467;SHT31;67759;51.972;5.650;2023-02-26T06:17:03;1.3;57.0
78467;SHT31;67759;51.972;5.650;2023-02-26T06:19:33;1.4;56.3
78467;SHT31;67759;51.972;5.650;2023-02-26T06:22:03;1.4;56.5
78467;SHT31;67759;51.972;5.650;2023-02-26T06:24:33;1.5;55.9
78467;SHT31;67759;51.972;5.650;2023-02-26T06:27:03;1.5;55.6
78467;SHT31;67759;51.972;5.650;2023-02-26T06:29:32;1.6;55.2
78467;SHT31;67759;51.972;5.650;2023-02-26T06:32:04;1.6;55.0
78467;SHT31;67759;51.972;5.650;2023-02-26T06:34:36;1.5;56.0
78467;SHT31;67759;51.972;5.650;2023-02-26T06:37:06;1.5;55.3
78467;SHT31;67759;51.972;5.650;2023-02-26T06:39:35;1.5;54.9
78467;SHT31;67759;51.972;5.650;2023-02-26T06:42:05;1.5;54.8
78467;SHT31;67759;51.972;5.650;2023-02-26T06:44:36;1.4;54.9
78467;SHT31;67759;51.972;5.650;2023-02-26T06:47:06;1.4;56.0
78467;SHT31;67759;51.972;5.650;2023-02-26T06:49:36;1.4;55.6
78467;SHT31;67759;51.972;5.650;2023-02-26T06:52:05;1.4;55.7
78467;SHT31;67759;51.972;5.650;2023-02-26T06:54:35;1.4;55.8
78467;SHT31;67759;51.972;5.650;2023-02-26T06:57:04;1.4;55.3
78467;SHT31;67759;51.972;5.650;2023-02-26T06:59:34;1.3;55.7
78467;SHT31;67759;51.972;5.650;2023-02-26T07:02:04;1.3;55.5
78467;SHT31;67759;51.972;5.650;2023-02-26T07:04:33;1.3;57.2
78467;SHT31;67759;51.972;5.650;2023-02-26T07:07:03;1.3;56.5
78467;SHT31;67759;51.972;5.650;2023-02-26T07:09:33;1.3;56.6
78467;SHT31;67759;51.972;5.650;2023-02-26T07:12:02;1.3;55.7
78467;SHT31;67759;51.972;5.650;2023-02-26T07:14:33;1.3;55.9
78467;SHT31;67759;51.972;5.650;2023-02-26T07:17:03;1.2;56.7
78467;SHT31;67759;51.972;5.650;2023-02-26T07:19:33;1.2;56.1
78467;SHT31;67759;51.972;5.650;2023-02-26T07:22:02;1.2;56.6
78467;SHT31;67759;51.972;5.650;2023-02-26T07:24:32;1.2;55.9
78467;SHT31;67759;51.972;5.650;2023-02-26T07:27:02;1.2;57.2
78467;SHT31;67759;51.972;5.650;2023-02-26T07:29:31;1.2;56.0
78467;SHT31;67759;51.972;5.650;2023-02-26T07:32:02;1.2;57.0
78467;SHT31;67759;51.972;5.650;2023-02-26T07:34:32;1.2;57.0
78467;SHT31;67759;51.972;5.650;2023-02-26T07:37:02;1.2;56.5
78467;SHT31;67759;51.972;5.650;2023-02-26T07:39:32;1.3;57.2
78467;SHT31;67759;51.972;5.650;2023-02-26T07:42:02;1.3;56.5
78467;SHT31;67759;51.972;5.650;2023-02-26T07:44:31;1.4;56.4
78467;SHT31;67759;51.972;5.650;2023-02-26T07:47:02;1.4;57.2
78467;SHT31;67759;51.972;5.650;2023-02-26T07:49:32;1.4;57.3
78467;SHT31;67759;51.972;5.650;2023-02-26T07:52:02;1.5;57.1
78467;SHT31;67759;51.972;5.650;2023-02-26T07:54:34;1.6;56.0
78467;SHT31;67759;51.972;5.650;2023-02-26T07:57:04;1.8;56.1
78467;SHT31;67759;51.972;5.650;2023-02-26T07:59:36;2.0;55.6
78467;SHT31;67759;51.972;5.650;2023-02-26T08:02:06;2.3;55.1
78467;SHT31;67759;51.972;5.650;2023-02-26T08:04:38;2.8;53.9
78467;SHT31;67759;51.972;5.650;2023-02-26T08:07:09;3.1;52.0
78467;SHT31;67759;51.972;5.650;2023-02-26T08:09:39;3.4;51.2
78467;SHT31;67759;51.972;5.650;2023-02-26T08:12:09;3.5;50.5
78467;SHT31;67759;51.972;5.650;2023-02-26T08:14:39;3.5;50.5
78467;SHT31;67759;51.972;5.650;2023-02-26T08:17:09;3.6;51.3
78467;SHT31;67759;51.972;5.650;2023-02-26T08:19:41;3.6;50.5
78467;SHT31;67759;51.972;5.650;2023-02-26T08:22:11;3.6;50.3
78467;SHT31;67759;51.972;5.650;2023-02-26T08:24:41;3.6;50.8
78467;SHT31;67759;51.972;5.650;2023-02-26T08:27:10;3.6;51.2
78467;SHT31;67759;51.972;5.650;2023-02-26T08:29:40;3.7;51.1
78467;SHT31;67759;51.972;5.650;2023-02-26T08:32:12;3.7;51.3
78467;SHT31;67759;51.972;5.650;2023-02-26T08:34:44;3.7;51.2
78467;SHT31;67759;51.972;5.650;2023-02-26T08:37:14;3.7;51.0
78467;SHT31;67759;51.972;5.650;2023-02-26T08:39:48;3.8;51.3
78467;SHT31;67759;51.972;5.650;2023-02-26T08:42:17;3.8;51.0
78467;SHT31;67759;51.972;5.650;2023-02-26T08:44:47;3.8;51.3
78467;SHT31;67759;51.972;5.650;2023-02-26T08:47:19;3.9;51.2
78467;SHT31;67759;51.972;5.650;2023-02-26T08:49:49;4.0;50.5
78467;SHT31;67759;51.972;5.650;2023-02-26T08:52:20;4.0;50.6
78467;SHT31;67759;51.972;5.650;2023-02-26T08:54:50;4.1;50.3
78467;SHT31;67759;51.972;5.650;2023-02-26T08:57:20;4.1;50.5
78467;SHT31;67759;51.972;5.650;2023-02-26T08:59:50;4.2;50.6
78467;SHT31;67759;51.972;5.650;2023-02-26T09:02:19;4.3;49.2
78467;SHT31;67759;51.972;5.650;2023-02-26T09:04:49;4.3;49.2
78467;SHT31;67759;51.972;5.650;2023-02-26T09:07:19;4.3;48.4
78467;SHT31;67759;51.972;5.650;2023-02-26T09:09:48;4.3;48.1
78467;SHT31;67759;51.972;5.650;2023-02-26T09:12:18;4.3;47.1
78467;SHT31;67759;51.972;5.650;2023-02-26T09:14:48;4.3;47.7
78467;SHT31;67759;51.972;5.650;2023-02-26T09:17:17;4.4;46.7
78467;SHT31;67759;51.972;5.650;2023-02-26T09:19:47;4.4;45.5
78467;SHT31;67759;51.972;5.650;2023-02-26T09:22:17;4.5;45.8
78467;SHT31;67759;51.972;5.650;2023-02-26T09:24:46;4.5;46.6
78467;SHT31;67759;51.972;5.650;2023-02-26T09:27:16;4.5;45.3
78467;SHT31;67759;51.972;5.650;2023-02-26T09:29:46;4.6;45.6
78467;SHT31;67759;51.972;5.650;2023-02-26T09:32:16;4.6;45.2
78467;SHT31;67759;51.972;5.650;2023-02-26T09:34:45;4.7;45.0
78467;SHT31;67759;51.972;5.650;2023-02-26T09:37:15;4.7;44.1
78467;SHT31;67759;51.972;5.650;2023-02-26T09:39:47;4.8;43.3
78467;SHT31;67759;51.972;5.650;2023-02-26T09:42:27;4.8;43.9
78467;SHT31;67759;51.972;5.650;2023-02-26T09:45:01;4.9;43.6
78467;SHT31;67759;51.972;5.650;2023-02-26T09:47:37;4.9;43.3
78467;SHT31;67759;51.972;5.650;2023-02-26T09:50:18;4.9;42.6
78467;SHT31;67759;51.972;5.650;2023-02-26T09:52:55;5.0;42.4
78467;SHT31;67759;51.972;5.650;2023-02-26T09:55:30;5.0;42.0
78467;SHT31;67759;51.972;5.650;2023-02-26T09:58:03;5.1;41.9
78467;SHT31;67759;51.972;5.650;2023-02-26T10:00:39;5.2;41.0
78467;SHT31;67759;51.972;5.650;2023-02-26T10:03:22;5.3;42.0
78467;SHT31;67759;51.972;5.650;2023-02-26T10:06:14;5.4;41.5
78467;SHT31;67759;51.972;5.650;2023-02-26T10:09:09;5.5;40.9
78467;SHT31;67759;51.972;5.650;2023-02-26T10:11:47;5.5;40.0
78467;SHT31;67759;51.972;5.650;2023-02-26T10:14:23;5.6;40.2
78467;SHT31;67759;51.972;5.650;2023-02-26T10:16:59;5.6;40.5
78467;SHT31;67759;51.972;5.650;2023-02-26T10:19:34;5.6;40.9
78467;SHT31;67759;51.972;5.650;2023-02-26T10:22:15;5.7;40.9
78467;SHT31;67759;51.972;5.650;2023-02-26T10:24:49;5.8;40.9
78467;SHT31;67759;51.972;5.650;2023-02-26T10:27:29;5.9;40.8
78467;SHT31;67759;51.972;5.650;2023-02-26T10:30:07;6.0;40.8
78467;SHT31;67759;51.972;5.650;2023-02-26T10:32:45;6.0;40.0
78467;SHT31;67759;51.972;5.650;2023-02-26T10:35:18;6.1;41.2
78467;SHT31;67759;51.972;5.650;2023-02-26T10:37:56;6.1;41.2
78467;SHT31;67759;51.972;5.650;2023-02-26T10:40:35;6.2;40.2
78467;SHT31;67759;51.972;5.650;2023-02-26T10:43:15;6.2;41.4
78467;SHT31;67759;51.972;5.650;2023-02-26T10:45:55;6.3;39.6
78467;SHT31;67759;51.972;5.650;2023-02-26T10:48:45;6.3;39.8
78467;SHT31;67759;51.972;5.650;2023-02-26T10:51:19;6.3;41.0
78467;SHT31;67759;51.972;5.650;2023-02-26T10:53:53;6.3;40.8
78467;SHT31;67759;51.972;5.650;2023-02-26T10:56:26;6.3;41.8
78467;SHT31;67759;51.972;5.650;2023-02-26T10:58:57;6.4;41.3
78467;SHT31;67759;51.972;5.650;2023-02-26T11:01:29;6.4;40.4
78467;SHT31;67759;51.972;5.650;2023-02-26T11:04:02;6.5;40.2
78467;SHT31;67759;51.972;5.650;2023-02-26T11:06:37;6.5;40.2
78467;SHT31;67759;51.972;5.650;2023-02-26T11:09:19;6.6;41.1
78467;SHT31;67759;51.972;5.650;2023-02-26T11:11:52;6.6;39.4
78467;SHT31;67759;51.972;5.650;2023-02-26T11:14:22;6.7;40.3
78467;SHT31;67759;51.972;5.650;2023-02-26T11:16:54;6.7;39.5
78467;SHT31;67759;51.972;5.650;2023-02-26T11:19:27;6.7;41.0
78467;SHT31;67759;51.972;5.650;2023-02-26T11:21:58;6.8;40.2
78467;SHT31;67759;51.972;5.650;2023-02-26T11:24:34;6.8;39.7
78467;SHT31;67759;51.972;5.650;2023-02-26T11:27:13;6.9;39.9
78467;SHT31;67759;51.972;5.650;2023-02-26T11:29:48;6.9;38.6
78467;SHT31;67759;51.972;5.650;2023-02-26T11:32:28;6.9;38.8
78467;SHT31;67759;51.972;5.650;2023-02-26T11:34:58;7.0;39.0
78467;SHT31;67759;51.972;5.650;2023-02-26T11:37:37;7.0;39.6
78467;SHT31;67759;51.972;5.650;2023-02-26T11:40:16;7.1;39.9
78467;SHT31;67759;51.972;5.650;2023-02-26T11:42:51;7.1;40.6
78467;SHT31;67759;51.972;5.650;2023-02-26T11:45:21;7.2;38.3
78467;SHT31;67759;51.972;5.650;2023-02-26T11:47:58;7.3;39.0
78467;SHT31;67759;51.972;5.650;2023-02-26T11:50:29;7.4;38.5
78467;SHT31;67759;51.972;5.650;2023-02-26T11:53:07;7.4;37.9
78467;SHT31;67759;51.972;5.650;2023-02-26T11:55:44;7.5;39.5
78467;SHT31;67759;51.972;5.650;2023-02-26T11:58:19;7.6;38.2
78467;SHT31;67759;51.972;5.650;2023-02-26T12:00:51;7.7;38.1
78467;SHT31;67759;51.972;5.650;2023-02-26T12:03:25;7.8;38.6
78467;SHT31;67759;51.972;5.650;2023-02-26T12:05:56;7.9;38.5
78467;SHT31;67759;51.972;5.650;2023-02-26T12:08:30;8.1;38.3
78467;SHT31;67759;51.972;5.650;2023-02-26T12:11:37;8.2;38.7
78467;SHT31;67759;51.972;5.650;2023-02-26T12:14:24;8.3;38.8
78467;SHT31;67759;51.972;5.650;2023-02-26T12:17:10;8.4;38.1
78467;SHT31;67759;51.972;5.650;2023-02-26T12:19:51;8.6;37.3
78467;SHT31;67759;51.972;5.650;2023-02-26T12:22:47;8.6;37.7
78467;SHT31;67759;51.972;5.650;2023-02-26T12:26:31;8.8;38.5
78467;SHT31;67759;51.972;5.650;2023-02-26T12:29:36;8.9;35.5
78467;SHT31;67759;51.972;5.650;2023-02-26T12:32:33;9.0;37.9
78467;SHT31;67759;51.972;5.650;2023-02-26T12:35:40;9.0;37.0
78467;SHT31;67759;51.972;5.650;2023-02-26T12:38:38;9.1;36.3
78467;SHT31;67759;51.972;5.650;2023-02-26T12:41:31;9.2;36.4
78467;SHT31;67759;51.972;5.650;2023-02-26T12:44:19;9.2;36.6
78467;SHT31;67759;51.972;5.650;2023-02-26T12:47:05;9.2;35.7
78467;SHT31;67759;51.972;5.650;2023-02-26T12:51:02;9.2;34.9
78467;SHT31;67759;51.972;5.650;2023-02-26T12:54:50;9.3;36.8
78467;SHT31;67759;51.972;5.650;2023-02-26T12:57:42;9.4;36.2
78467;SHT31;67759;51.972;5.650;2023-02-26T13:00:35;9.5;37.3
78467;SHT31;67759;51.972;5.650;2023-02-26T13:03:29;9.7;36.7
78467;SHT31;67759;51.972;5.650;2023-02-26T13:06:23;9.9;36.1
78467;SHT31;67759;51.972;5.650;2023-02-26T13:09:03;10.2;35.5
78467;SHT31;67759;51.972;5.650;2023-02-26T13:11:48;10.3;33.0
78467;SHT31;67759;51.972;5.650;2023-02-26T13:14:32;10.3;33.8
78467;SHT31;67759;51.972;5.650;2023-02-26T13:17:10;10.3;33.4
78467;SHT31;67759;51.972;5.650;2023-02-26T13:19:45;10.3;35.7
78467;SHT31;67759;51.972;5.650;2023-02-26T13:22:21;10.3;33.3
78467;SHT31;67759;51.972;5.650;2023-02-26T13:24:57;10.3;33.0
78467;SHT31;67759;51.972;5.650;2023-02-26T13:27:33;10.3;32.0
78467;SHT31;67759;51.972;5.650;2023-02-26T13:30:21;10.3;32.2
78467;SHT31;67759;51.972;5.650;2023-02-26T13:32:54;10.2;34.2
78467;SHT31;67759;51.972;5.650;2023-02-26T13:35:29;10.1;35.8
78467;SHT31;67759;51.972;5.650;2023-02-26T13:38:11;10.2;35.5
78467;SHT31;67759;51.972;5.650;2023-02-26T13:40:49;10.3;35.3
78467;SHT31;67759;51.972;5.650;2023-02-26T13:43:36;10.4;36.2
78467;SHT31;67759;51.972;5.650;2023-02-26T13:46:20;10.5;36.1
78467;SHT31;67759;51.972;5.650;2023-02-26T13:49:01;10.5;36.5
78467;SHT31;67759;51.972;5.650;2023-02-26T13:51:36;10.5;33.9
78467;SHT31;67759;51.972;5.650;2023-02-26T13:54:32;10.6;34.1
78467;SHT31;67759;51.972;5.650;2023-02-26T13:57:35;10.6;36.3
78467;SHT31;67759;51.972;5.650;2023-02-26T14:00:26;10.6;36.0
78467;SHT31;67759;51.972;5.650;2023-02-26T14:03:11;10.6;35.1
78467;SHT31;67759;51.972;5.650;2023-02-26T14:05:56;10.6;35.6
78467;SHT31;67759;51.972;5.650;2023-02-26T14:08:43;10.6;33.1
78467;SHT31;67759;51.972;5.650;2023-02-26T14:11:41;10.6;35.5
78467;SHT31;67759;51.972;5.650;2023-02-26T14:14:16;10.6;34.9
78467;SHT31;67759;51.972;5.650;2023-02-26T14:16:53;10.6;35.5
78467;SHT31;67759;51.972;5.650;2023-02-26T14:19:27;10.7;36.4
78467;SHT31;67759;51.972;5.650;2023-02-26T14:22:01;10.8;36.6
78467;SHT31;67759;51.972;5.650;2023-02-26T14:24:37;10.8;35.4
78467;SHT31;67759;51.972;5.650;2023-02-26T14:27:33;10.9;39.0
78467;SHT31;67759;51.972;5.650;2023-02-26T14:30:24;10.9;36.1
78467;SHT31;67759;51.972;5.650;2023-02-26T14:33:07;10.9;34.7
78467;SHT31;67759;51.972;5.650;2023-02-26T14:35:40;10.8;35.6
78467;SHT31;67759;51.972;5.650;2023-02-26T14:38:22;10.7;37.5
78467;SHT31;67759;51.972;5.650;2023-02-26T14:40:53;10.7;36.4
78467;SHT31;67759;51.972;5.650;2023-02-26T14:43:33;10.7;36.3
78467;SHT31;67759;51.972;5.650;2023-02-26T14:46:04;10.7;35.6
78467;SHT31;67759;51.972;5.650;2023-02-26T14:48:37;10.7;36.1
78467;SHT31;67759;51.972;5.650;2023-02-26T14:51:18;10.7;35.7
78467;SHT31;67759;51.972;5.650;2023-02-26T14:54:25;10.7;34.4
78467;SHT31;67759;51.972;5.650;2023-02-26T14:57:11;10.6;34.3
78467;SHT31;67759;51.972;5.650;2023-02-26T15:00:05;10.6;35.9
78467;SHT31;67759;51.972;5.650;2023-02-26T15:02:54;10.6;36.7
78467;SHT31;67759;51.972;5.650;2023-02-26T15:05:33;10.6;34.6
78467;SHT31;67759;51.972;5.650;2023-02-26T15:08:23;10.5;33.0
78467;SHT31;67759;51.972;5.650;2023-02-26T15:11:18;10.5;35.7
78467;SHT31;67759;51.972;5.650;2023-02-26T15:14:07;10.4;35.8
78467;SHT31;67759;51.972;5.650;2023-02-26T15:16:52;10.4;37.9
78467;SHT31;67759;51.972;5.650;2023-02-26T15:19:36;10.4;37.0
78467;SHT31;67759;51.972;5.650;2023-02-26T15:22:26;10.4;36.2
78467;SHT31;67759;51.972;5.650;2023-02-26T15:24:58;10.4;35.3
78467;SHT31;67759;51.972;5.650;2023-02-26T15:27:31;10.4;37.2
78467;SHT31;67759;51.972;5.650;2023-02-26T15:30:03;10.5;37.4
78467;SHT31;67759;51.972;5.650;2023-02-26T15:32:36;10.4;36.7
78467;SHT31;67759;51.972;5.650;2023-02-26T15:35:14;10.4;36.3
78467;SHT31;67759;51.972;5.650;2023-02-26T15:37:47;10.4;35.2
78467;SHT31;67759;51.972;5.650;2023-02-26T15:40:20;10.4;38.8
78467;SHT31;67759;51.972;5.650;2023-02-26T15:42:53;10.3;38.8
78467;SHT31;67759;51.972;5.650;2023-02-26T15:45:27;10.3;37.4
78467;SHT31;67759;51.972;5.650;2023-02-26T15:48:00;10.3;37.2
78467;SHT31;67759;51.972;5.650;2023-02-26T15:50:35;10.3;37.3
78467;SHT31;67759;51.972;5.650;2023-02-26T15:53:09;10.3;36.6
78467;SHT31;67759;51.972;5.650;2023-02-26T15:55:47;10.3;35.7
78467;SHT31;67759;51.972;5.650;2023-02-26T15:58:22;10.3;37.3
78467;SHT31;67759;51.972;5.650;2023-02-26T16:01:00;10.3;36.1
78467;SHT31;67759;51.972;5.650;2023-02-26T16:03:33;10.3;37.6
78467;SHT31;67759;51.972;5.650;2023-02-26T16:06:11;10.3;36.0
78467;SHT31;67759;51.972;5.650;2023-02-26T16:08:41;10.3;37.5
78467;SHT31;67759;51.972;5.650;2023-02-26T16:11:12;10.2;38.4
78467;SHT31;67759;51.972;5.650;2023-02-26T16:13:45;10.2;37.6
78467;SHT31;67759;51.972;5.650;2023-02-26T16:16:23;10.2;38.5
78467;SHT31;67759;51.972;5.650;2023-02-26T16:18:56;10.1;37.7
78467;SHT31;67759;51.972;5.650;2023-02-26T16:21:31;10.0;39.2
78467;SHT31;67759;51.972;5.650;2023-02-26T16:24:05;9.9;37.7
78467;SHT31;67759;51.972;5.650;2023-02-26T16:26:42;9.8;38.8
78467;SHT31;67759;51.972;5.650;2023-02-26T16:29:18;9.6;39.5
78467;SHT31;67759;51.972;5.650;2023-02-26T16:31:52;9.5;38.7
78467;SHT31;67759;51.972;5.650;2023-02-26T16:34:33;9.4;40.2
78467;SHT31;67759;51.972;5.650;2023-02-26T16:37:24;9.3;37.0
78467;SHT31;67759;51.972;5.650;2023-02-26T16:40:03;9.1;38.9
78467;SHT31;67759;51.972;5.650;2023-02-26T16:42:51;9.0;38.6
78467;SHT31;67759;51.972;5.650;2023-02-26T16:45:43;8.9;38.4
78467;SHT31;67759;51.972;5.650;2023-02-26T16:48:21;8.8;38.2
78467;SHT31;67759;51.972;5.650;2023-02-26T16:50:56;8.7;42.3
78467;SHT31;67759;51.972;5.650;2023-02-26T16:53:33;8.7;38.7
78467;SHT31;67759;51.972;5.650;2023-02-26T16:56:04;8.6;39.9
78467;SHT31;67759;51.972;5.650;2023-02-26T16:58:36;8.5;40.5
78467;SHT31;67759;51.972;5.650;2023-02-26T17:01:14;8.5;40.2
78467;SHT31;67759;51.972;5.650;2023-02-26T17:03:45;8.4;41.8
78467;SHT31;67759;51.972;5.650;2023-02-26T17:06:19;8.3;41.9
78467;SHT31;67759;51.972;5.650;2023-02-26T17:08:52;8.2;42.8
78467;SHT31;67759;51.972;5.650;2023-02-26T17:11:26;8.1;40.9
78467;SHT31;67759;51.972;5.650;2023-02-26T17:14:13;8.0;40.0